Time;durP1;ratioP1;P1;durP2;ratioP2;P2;SDS_P1;SDS_P2;PMS_P1;PMS_P2;Temp;Humidity;BMP_temperature;BMP_pressure;BME280_temperature;BME280_humidity;BME280_pressure;Samples;Min_cycle;Max_cycle;Signal;HPM_P1;HPM_P2
2023/08/19 00:02:12;;;;;;;4.20;3.80;;;;;;;19.15;100.00;96434.56;5007638;28;104166;-80
2023/08/19 00:04:40;;;;;;;5.07;4.07;;;;;;;18.95;100.00;96436.88;5008089;28;102512;-80
2023/08/19 00:07:07;;;;;;;4.70;4.30;;;;;;;18.97;100.00;96435.47;5011222;28;105409;-80
2023/08/19 00:09:37;;;;;;;4.50;4.10;;;;;;;19.12;100.00;96434.38;5008196;28;102007;-80
2023/08/19 00:12:04;;;;;;;4.90;4.33;;;;;;;19.13;100.00;96436.75;5009430;28;102517;-80
2023/08/19 00:14:31;;;;;;;5.13;4.67;;;;;;;19.05;100.00;96437.47;5007561;28;105686;-81
2023/08/19 00:17:00;;;;;;;4.73;4.20;;;;;;;18.98;100.00;96429.03;5008195;28;101965;-81
2023/08/19 00:19:27;;;;;;;4.70;4.30;;;;;;;19.02;100.00;96430.00;5008257;28;103924;-81
2023/08/19 00:21:54;;;;;;;4.63;4.27;;;;;;;18.97;100.00;96423.94;5007495;28;104290;-78
2023/08/19 00:24:21;;;;;;;5.03;4.53;;;;;;;18.87;100.00;96432.22;5007883;28;101893;-74
2023/08/19 00:26:48;;;;;;;4.43;3.83;;;;;;;18.99;100.00;96430.63;5007901;28;104948;-74
2023/08/19 00:29:15;;;;;;;5.17;4.23;;;;;;;19.11;100.00;96427.38;5011739;28;105641;-74
2023/08/19 00:31:42;;;;;;;5.00;4.60;;;;;;;19.04;100.00;96425.13;5011547;28;103903;-74
2023/08/19 00:34:11;;;;;;;5.50;4.70;;;;;;;18.98;100.00;96422.81;5010647;28;105340;-74
2023/08/19 00:36:37;;;;;;;4.80;4.40;;;;;;;19.16;100.00;96425.38;5011403;28;101949;-74
2023/08/19 00:39:05;;;;;;;5.40;4.80;;;;;;;19.12;100.00;96416.28;5011335;28;105320;-74
2023/08/19 00:41:33;;;;;;;5.13;4.70;;;;;;;19.07;100.00;96416.41;5010684;28;105156;-74
2023/08/19 00:44:00;;;;;;;5.17;4.23;;;;;;;18.97;100.00;96423.94;5011190;28;102001;-75
2023/08/19 00:46:27;;;;;;;5.30;4.23;;;;;;;18.87;100.00;96424.13;5010687;28;105820;-75
2023/08/19 00:48:54;;;;;;;6.37;4.67;;;;;;;18.70;100.00;96421.25;5014106;28;105761;-75
2023/08/19 00:51:22;;;;;;;4.67;4.27;;;;;;;18.53;100.00;96423.75;5011132;28;105876;-77
2023/08/19 00:53:50;;;;;;;5.20;4.70;;;;;;;18.67;100.00;96421.84;5010305;28;104020;-77
2023/08/19 00:56:17;;;;;;;5.43;4.47;;;;;;;18.65;100.00;96421.34;5044879;27;101965;-76
2023/08/19 00:58:44;;;;;;;5.60;4.03;;;;;;;18.63;100.00;96418.97;5011103;28;105870;-75
2023/08/19 01:01:11;;;;;;;5.33;4.13;;;;;;;18.67;100.00;96422.66;5010306;28;105613;-75
2023/08/19 01:03:38;;;;;;;6.10;4.37;;;;;;;18.60;100.00;96422.28;5010750;28;101884;-75
2023/08/19 01:06:21;;;;;;;5.10;3.83;;;;;;;18.66;100.00;96420.25;5010799;28;105275;-75
2023/08/19 01:09:01;;;;;;;4.23;3.83;;;;;;;18.59;100.00;96417.19;5010226;28;105716;-75
2023/08/19 01:11:46;;;;;;;4.50;4.10;;;;;;;18.31;100.00;96412.84;5048226;27;102138;-75
2023/08/19 01:14:29;;;;;;;4.07;3.77;;;;;;;18.31;100.00;96423.63;5010147;28;105745;-74
2023/08/19 01:16:57;;;;;;;4.60;4.20;;;;;;;18.16;100.00;96413.13;5010684;28;102053;-77
2023/08/19 01:19:32;;;;;;;4.63;4.10;;;;;;;18.23;100.00;96417.03;5010719;28;105440;-76
2023/08/19 01:22:03;;;;;;;5.40;4.57;;;;;;;18.23;100.00;96414.34;5009957;28;105795;-75
2023/08/19 01:24:38;;;;;;;4.53;4.13;;;;;;;18.16;100.00;96405.06;5010760;28;102080;-75
2023/08/19 01:27:06;;;;;;;7.07;4.13;;;;;;;18.22;100.00;96411.94;5010590;28;104345;-75
2023/08/19 01:29:33;;;;;;;4.63;4.23;;;;;;;18.25;100.00;96404.06;5009913;28;105342;-72
2023/08/19 01:32:00;;;;;;;4.90;4.50;;;;;;;18.17;100.00;96407.44;5010495;28;102023;-77
2023/08/19 01:34:27;;;;;;;4.77;4.37;;;;;;;18.06;100.00;96402.53;5013150;28;105247;-79
2023/08/19 01:36:59;;;;;;;6.07;5.07;;;;;;;17.97;100.00;96404.31;5010349;28;101872;-73
2023/08/19 01:39:28;;;;;;;7.37;4.47;;;;;;;18.31;100.00;96412.84;5010481;28;105422;-75
2023/08/19 01:41:57;;;;;;;5.50;5.00;;;;;;;18.34;100.00;96409.56;5009548;28;105705;-75
2023/08/19 01:44:25;;;;;;;5.93;4.97;;;;;;;18.35;100.00;96414.66;5010324;28;102105;-75
2023/08/19 01:46:52;;;;;;;6.07;4.93;;;;;;;18.27;100.00;96419.91;5009706;28;104780;-75
2023/08/19 01:49:19;;;;;;;6.17;4.67;;;;;;;18.28;100.00;96424.19;5009513;28;105854;-75
2023/08/19 01:51:46;;;;;;;4.90;4.37;;;;;;;18.21;100.00;96423.81;5009996;28;102027;-74
2023/08/19 01:54:13;;;;;;;4.73;4.20;;;;;;;18.16;100.00;96429.28;5010168;28;105140;-74
2023/08/19 01:56:40;;;;;;;5.13;4.70;;;;;;;18.18;100.00;96432.47;5012964;28;106220;-74
2023/08/19 01:59:08;;;;;;;5.53;4.90;;;;;;;18.24;100.00;96433.97;5010073;28;104958;-74
2023/08/19 02:01:35;;;;;;;4.93;4.47;;;;;;;18.30;100.00;96432.78;5009380;28;105264;-74
2023/08/19 02:04:02;;;;;;;5.37;4.80;;;;;;;18.14;100.00;96428.78;5009480;28;101985;-74
2023/08/19 02:06:29;;;;;;;6.23;4.57;;;;;;;18.44;100.00;96441.69;5010054;28;105608;-74
2023/08/19 02:08:56;;;;;;;5.23;4.80;;;;;;;18.28;100.00;96432.28;5009383;28;105223;-75
2023/08/19 02:11:23;;;;;;;5.60;5.10;;;;;;;18.10;100.00;96433.16;5010057;28;102041;-75
2023/08/19 02:13:50;;;;;;;4.60;4.20;;;;;;;17.99;100.00;96432.53;5009827;28;105301;-79
2023/08/19 02:16:19;;;;;;;5.60;4.40;;;;;;;17.94;100.00;96427.22;5009092;28;105336;-84
2023/08/19 02:18:46;;;;;;;7.17;4.93;;;;;;;17.85;100.00;96431.69;5012993;28;101940;-75
2023/08/19 02:21:13;;;;;;;5.77;5.27;;;;;;;17.75;100.00;96434.56;5009118;28;105214;-75
2023/08/19 02:23:40;;;;;;;5.77;5.13;;;;;;;17.84;100.00;96437.38;5009665;28;102024;-75
2023/08/19 02:26:06;;;;;;;5.10;4.53;;;;;;;17.85;100.00;96437.09;5009574;28;104861;-75
2023/08/19 02:28:33;;;;;;;5.27;4.53;;;;;;;17.95;100.00;96439.59;5009138;28;105581;-75
2023/08/19 02:31:03;;;;;;;5.90;4.73;;;;;;;18.10;100.00;96442.00;5009670;28;102123;-75
2023/08/19 02:33:32;;;;;;;5.03;4.53;;;;;;;18.06;100.00;96437.53;5009338;28;105542;-75
2023/08/19 02:35:59;;;;;;;5.83;5.33;;;;;;;18.10;100.00;96438.53;5008791;28;105165;-75
2023/08/19 02:38:26;;;;;;;7.67;5.60;;;;;;;18.13;100.00;96446.00;5009635;28;101915;-75
2023/08/19 02:40:53;;;;;;;5.73;4.90;;;;;;;18.00;100.00;96450.28;5012360;28;105189;-75
2023/08/19 02:43:20;;;;;;;5.30;4.80;;;;;;;18.11;100.00;96440.13;5009325;28;101990;-75
2023/08/19 02:45:48;;;;;;;6.07;5.57;;;;;;;17.83;100.00;96438.47;5009120;28;105679;-75
2023/08/19 02:48:15;;;;;;;5.60;5.10;;;;;;;18.19;100.00;96448.31;5008640;28;105379;-75
2023/08/19 02:50:43;;;;;;;5.70;5.20;;;;;;;18.21;100.00;96450.72;5009394;28;102114;-75
2023/08/19 02:53:10;;;;;;;6.70;5.27;;;;;;;18.39;100.00;96442.59;5008144;28;105240;-76
2023/08/19 02:55:40;;;;;;;5.90;5.27;;;;;;;18.21;100.00;96446.13;5008574;28;105601;-76
2023/08/19 02:58:08;;;;;;;6.83;5.23;;;;;;;18.10;100.00;96444.69;5009202;28;102165;-74
2023/08/19 03:00:36;;;;;;;5.43;4.93;;;;;;;18.27;100.00;96441.47;5012020;28;105062;-74
2023/08/19 03:03:03;;;;;;;5.93;4.70;;;;;;;18.09;100.00;96439.63;5009095;28;101951;-73
2023/08/19 03:05:30;;;;;;;7.03;4.87;;;;;;;17.97;100.00;96442.78;5008872;28;105364;-73
2023/08/19 03:07:59;;;;;;;5.87;4.70;;;;;;;17.79;100.00;96432.06;5009776;28;102835;-74
2023/08/19 03:10:26;;;;;;;6.77;4.40;;;;;;;17.88;100.00;96441.84;5008897;28;102085;-74
2023/08/19 03:12:54;;;;;;;5.23;4.73;;;;;;;17.53;100.00;96434.38;5008961;28;103810;-75
2023/08/19 03:15:21;;;;;;;5.30;4.20;;;;;;;17.70;100.00;96444.59;5008052;28;105526;-73
2023/08/19 03:17:47;;;;;;;6.80;4.53;;;;;;;17.66;100.00;96438.22;5008826;28;102265;-74
2023/08/19 03:20:14;;;;;;;5.50;5.00;;;;;;;17.46;100.00;96428.56;5008809;28;105444;-74
2023/08/19 03:22:42;;;;;;;5.93;5.03;;;;;;;17.43;100.00;96428.38;5011975;28;105478;-75
2023/08/19 03:25:11;;;;;;;6.63;5.37;;;;;;;17.47;100.00;96437.44;5008680;28;105251;-75
2023/08/19 03:27:38;;;;;;;8.27;5.50;;;;;;;17.79;100.00;96440.94;5008024;28;105707;-77
2023/08/19 03:30:07;;;;;;;6.17;5.57;;;;;;;17.32;100.00;96437.59;5010019;28;102156;-77
2023/08/19 03:32:33;;;;;;;7.77;5.00;;;;;;;17.82;100.00;96442.25;5008793;28;105071;-77
2023/08/19 03:35:01;;;;;;;6.23;5.37;;;;;;;17.50;100.00;96444.91;5007882;28;105239;-78
2023/08/19 03:37:28;;;;;;;7.97;5.53;;;;;;;17.76;100.00;96448.81;5008670;28;101846;-78
2023/08/19 03:39:55;;;;;;;8.70;5.93;;;;;;;17.95;100.00;96446.88;5008494;28;105110;-78
2023/08/19 03:42:24;;;;;;;6.20;5.60;;;;;;;17.60;100.00;96439.41;5007913;28;104977;-78
2023/08/19 03:44:53;;;;;;;7.13;4.87;;;;;;;17.94;100.00;96450.66;5012029;28;102111;-78
2023/08/19 03:47:20;;;;;;;6.60;5.33;;;;;;;17.45;100.00;96443.09;5007485;28;105535;-78
2023/08/19 03:49:47;;;;;;;6.40;5.10;;;;;;;17.57;100.00;96446.16;5008532;28;102034;-78
2023/08/19 03:52:14;;;;;;;5.87;4.87;;;;;;;17.54;100.00;96451.31;5008218;28;105554;-78
2023/08/19 03:54:41;;;;;;;6.00;5.40;;;;;;;17.36;100.00;96449.38;5008857;28;103283;-79
2023/08/19 03:57:08;;;;;;;6.13;5.37;;;;;;;17.51;100.00;96459.97;5042309;27;101954;-79
2023/08/19 03:59:36;;;;;;;6.80;5.60;;;;;;;17.78;100.00;96457.38;5042050;27;105153;-79
2023/08/19 04:02:03;;;;;;;5.90;4.97;;;;;;;17.59;100.00;96453.91;5007650;28;105571;-79
2023/08/19 04:04:30;;;;;;;5.83;5.30;;;;;;;17.65;100.00;96447.38;5010964;28;102104;-79
2023/08/19 04:06:57;;;;;;;6.83;5.50;;;;;;;17.58;100.00;96441.56;5014808;28;103906;-77
2023/08/19 04:09:24;;;;;;;7.93;5.67;;;;;;;17.66;100.00;96452.44;5012126;28;101938;-78
2023/08/19 04:11:51;;;;;;;6.33;5.60;;;;;;;17.45;100.00;96448.47;5011644;28;105314;-76
2023/08/19 04:14:18;;;;;;;5.87;5.33;;;;;;;17.66;100.00;96454.34;5010997;28;105176;-76
2023/08/19 04:16:47;;;;;;;5.93;5.33;;;;;;;17.28;100.00;96450.06;5011687;28;101898;-75
2023/08/19 04:19:14;;;;;;;6.83;5.90;;;;;;;17.52;100.00;96451.59;5011818;28;104917;-75
2023/08/19 04:21:41;;;;;;;5.63;5.07;;;;;;;17.54;100.00;96459.38;5011039;28;105553;-75
2023/08/19 04:24:08;;;;;;;6.63;5.60;;;;;;;17.53;100.00;96455.06;5011517;28;102020;-75
2023/08/19 04:26:35;;;;;;;6.27;5.67;;;;;;;17.25;100.00;96456.00;5011431;28;105728;-75
2023/08/19 04:29:02;;;;;;;5.80;5.13;;;;;;;17.24;100.00;96454.41;5014191;28;105343;-75
2023/08/19 04:31:31;;;;;;;5.40;4.90;;;;;;;17.18;100.00;96456.38;5011523;28;105643;-75
2023/08/19 04:34:04;;;;;;;5.00;4.60;;;;;;;16.91;100.00;96453.53;5010857;28;105248;-75
2023/08/19 04:36:31;;;;;;;4.73;4.20;;;;;;;17.05;100.00;96461.66;5011273;28;101882;-75
2023/08/19 04:38:59;;;;;;;5.30;4.80;;;;;;;17.07;100.00;96467.53;5011223;28;105006;-75
2023/08/19 04:41:27;;;;;;;4.97;4.37;;;;;;;17.35;100.00;96477.38;5010601;28;105408;-76
2023/08/19 04:43:54;;;;;;;7.30;4.93;;;;;;;17.41;100.00;96473.53;5011135;28;102075;-74
2023/08/19 04:46:23;;;;;;;5.70;5.20;;;;;;;17.24;100.00;96462.47;5044429;27;105577;-74
2023/08/19 04:48:51;;;;;;;5.07;4.43;;;;;;;17.15;100.00;96470.38;5010651;28;105706;-74
2023/08/19 04:51:19;;;;;;;4.90;4.50;;;;;;;17.20;100.00;96466.81;5014630;28;102178;-75
2023/08/19 04:53:46;;;;;;;6.53;4.73;;;;;;;17.38;100.00;96482.19;5010354;28;105694;-76
2023/08/19 04:56:13;;;;;;;6.30;5.23;;;;;;;17.47;100.00;96480.44;5044522;27;101933;-76
2023/08/19 04:58:40;;;;;;;5.17;4.67;;;;;;;17.54;100.00;96494.34;5010888;28;104986;-77
2023/08/19 05:01:07;;;;;;;5.17;4.70;;;;;;;17.32;100.00;96478.75;5010284;28;105823;-77
2023/08/19 05:03:36;;;;;;;7.20;4.70;;;;;;;17.71;100.00;96491.94;5010642;28;101879;-77
2023/08/19 05:06:04;;;;;;;7.13;5.50;;;;;;;17.33;100.00;96493.78;5011078;28;105041;-76
2023/08/19 05:08:40;;;;;;;5.60;5.10;;;;;;;17.22;100.00;96496.91;5010372;28;104056;-76
2023/08/19 05:11:07;;;;;;;6.37;5.17;;;;;;;17.90;100.00;96511.53;5014356;28;102273;-77
2023/08/19 05:13:34;;;;;;;7.63;5.60;;;;;;;17.99;100.00;96501.69;5043843;27;105388;-77
2023/08/19 05:16:01;;;;;;;5.40;4.90;;;;;;;18.28;100.00;96505.78;5010087;28;102091;-77
2023/08/19 05:18:28;;;;;;;7.30;6.47;;;;;;;18.26;100.00;96501.78;5045120;27;104926;-77
2023/08/19 05:20:55;;;;;;;8.67;6.20;;;;;;;18.54;100.00;96512.31;5044606;27;105297;-77
2023/08/19 05:23:22;;;;;;;6.17;5.67;;;;;;;18.71;100.00;96503.66;5011591;28;101911;-77
2023/08/19 05:25:51;;;;;;;6.77;5.93;;;;;;;18.90;100.00;96502.47;5011429;28;105351;-77
2023/08/19 05:28:18;;;;;;;6.97;6.27;;;;;;;18.99;100.00;96497.19;5010649;28;105679;-76
2023/08/19 05:30:45;;;;;;;6.57;6.07;;;;;;;19.01;100.00;96493.09;5011470;28;101980;-75
2023/08/19 05:33:12;;;;;;;7.53;6.93;;;;;;;18.91;100.00;96495.19;5014305;28;103931;-74
2023/08/19 05:35:39;;;;;;;7.30;6.67;;;;;;;19.05;100.00;96486.00;5011276;28;102011;-73
2023/08/19 05:38:06;;;;;;;7.03;6.43;;;;;;;19.16;100.00;96491.97;5011185;28;104903;-73
2023/08/19 05:40:33;;;;;;;8.73;6.00;;;;;;;19.31;100.00;96487.09;5010478;28;105675;-73
2023/08/19 05:43:01;;;;;;;6.77;6.17;;;;;;;19.35;100.00;96479.19;5011016;28;102193;-73
2023/08/19 05:45:28;;;;;;;6.80;5.97;;;;;;;19.43;100.00;96487.38;5010905;28;105461;-75
2023/08/19 05:47:55;;;;;;;6.77;6.17;;;;;;;19.50;100.00;96495.06;5010324;28;105053;-75
2023/08/19 05:50:22;;;;;;;7.57;6.77;;;;;;;19.51;100.00;96491.25;5010762;28;102120;-74
2023/08/19 05:52:49;;;;;;;6.43;5.73;;;;;;;19.68;100.00;96494.88;5010878;28;105709;-74
2023/08/19 05:55:17;;;;;;;6.57;5.97;;;;;;;19.87;100.00;96492.81;5013825;28;105171;-74
2023/08/19 05:57:44;;;;;;;6.50;6.00;;;;;;;19.94;100.00;96495.09;5010884;28;103895;-74
2023/08/19 06:00:13;;;;;;;7.30;6.60;;;;;;;19.81;100.00;96490.53;5010101;28;105282;-74
2023/08/19 06:02:40;;;;;;;7.53;6.73;;;;;;;19.90;100.00;96496.81;5010651;28;101888;-77
2023/08/19 06:05:08;;;;;;;6.80;6.10;;;;;;;19.91;100.00;96496.50;5010394;28;104927;-77
2023/08/19 06:07:37;;;;;;;6.90;6.23;;;;;;;19.93;100.00;96498.88;5010282;28;105299;-76
2023/08/19 06:10:04;;;;;;;6.70;6.10;;;;;;;20.24;100.00;96488.97;5012007;28;101992;-79
2023/08/19 06:12:31;;;;;;;6.33;5.73;;;;;;;20.07;100.00;96494.25;5011914;28;102808;-77
2023/08/19 06:14:58;;;;;;;6.83;5.90;;;;;;;20.21;100.00;96500.41;5009782;28;105338;-78
2023/08/19 06:17:26;;;;;;;5.77;5.17;;;;;;;20.42;100.00;96496.06;5014147;28;101984;-76
2023/08/19 06:19:54;;;;;;;5.60;5.20;;;;;;;20.57;100.00;96492.97;5009863;28;105838;-79
2023/08/19 06:22:21;;;;;;;6.33;5.73;;;;;;;20.58;100.00;96505.38;5010478;28;101970;-78
2023/08/19 06:24:48;;;;;;;6.00;5.50;;;;;;;20.77;100.00;96503.25;5010299;28;104918;-79
2023/08/19 06:27:15;;;;;;;5.60;5.10;;;;;;;21.00;100.00;96510.19;5008590;28;104326;-79
2023/08/19 06:29:42;;;;;;;6.17;5.50;;;;;;;21.02;100.00;96508.78;5010562;28;101796;-81
2023/08/19 06:32:11;;;;;;;6.67;6.07;;;;;;;20.99;100.00;96509.38;5010372;28;105486;-81
2023/08/19 06:34:40;;;;;;;6.63;6.13;;;;;;;21.17;100.00;96513.75;5009515;28;105467;-81
2023/08/19 06:37:11;;;;;;;5.87;5.17;;;;;;;21.37;100.00;96512.38;5010129;28;101890;-81
2023/08/19 06:39:43;;;;;;;6.93;5.73;;;;;;;21.47;100.00;96518.25;5012841;28;105216;-81
2023/08/19 06:42:11;;;;;;;5.30;4.80;;;;;;;21.76;100.00;96525.81;5010047;28;101968;-81
2023/08/19 06:44:41;;;;;;;5.50;5.00;;;;;;;21.95;100.00;96529.81;5011431;28;102956;-81
2023/08/19 06:47:10;;;;;;;6.57;5.70;;;;;;;21.87;100.00;96527.09;5009079;28;105594;-81
2023/08/19 06:49:39;;;;;;;5.30;4.80;;;;;;;22.08;100.00;96522.66;5011198;28;101949;-81
2023/08/19 06:52:07;;;;;;;5.87;4.80;;;;;;;22.34;100.00;96521.50;5009873;28;103826;-82
2023/08/19 06:54:34;;;;;;;5.10;4.70;;;;;;;22.35;100.00;96527.72;5009039;28;105831;-82
2023/08/19 06:57:07;;;;;;;6.20;5.53;;;;;;;21.95;100.00;96527.09;5009757;28;102066;-82
2023/08/19 06:59:38;;;;;;;6.60;5.57;;;;;;;22.03;100.00;96525.50;5011268;28;102723;-81
2023/08/19 07:02:07;;;;;;;6.47;5.60;;;;;;;22.06;100.00;96530.31;5012315;28;101951;-81
2023/08/19 07:04:35;;;;;;;6.30;5.70;;;;;;;22.26;100.00;96532.34;5043274;27;105629;-81
2023/08/19 07:07:05;;;;;;;5.60;5.10;;;;;;;22.65;100.00;96526.72;5009166;28;105545;-81
2023/08/19 07:09:34;;;;;;;5.50;4.90;;;;;;;22.80;100.00;96535.13;5009665;28;102008;-81
2023/08/19 07:12:02;;;;;;;5.77;5.00;;;;;;;22.75;100.00;96543.44;5009507;28;105359;-82
2023/08/19 07:14:30;;;;;;;7.37;5.00;;;;;;;22.46;100.00;96535.19;5010279;28;102965;-82
2023/08/19 07:17:03;;;;;;;6.63;5.33;;;;;;;22.37;100.00;96537.13;5009359;28;102039;-79
2023/08/19 07:19:35;;;;;;;6.70;4.93;;;;;;;22.63;100.00;96535.19;5010781;28;102975;-79
2023/08/19 07:22:04;;;;;;;5.27;4.77;;;;;;;23.03;100.00;96549.25;5012621;28;105437;-79
2023/08/19 07:24:32;;;;;;;5.50;4.97;;;;;;;22.98;100.00;96541.28;5009450;28;105468;-79
2023/08/19 07:27:02;;;;;;;6.50;4.10;;;;;;;23.08;100.00;96540.91;5042617;27;105406;-79
2023/08/19 07:29:29;;;;;;;6.37;4.33;;;;;;;22.99;100.00;96543.66;5009452;28;101974;-79
2023/08/19 07:31:58;;;;;;;4.87;4.43;;;;;;;23.20;100.00;96547.28;5009428;28;104210;-79
2023/08/19 07:34:25;;;;;;;5.87;4.00;;;;;;;23.20;100.00;96555.44;5008660;28;105127;-79
2023/08/19 07:36:52;;;;;;;8.27;4.63;;;;;;;23.13;100.00;96551.59;5008944;28;102099;-79
2023/08/19 07:39:22;;;;;;;4.10;3.70;;;;;;;23.43;100.00;96551.31;5008866;28;104930;-79
2023/08/19 07:41:50;;;;;;;4.73;4.10;;;;;;;23.41;100.00;96552.75;5008727;28;105542;-79
2023/08/19 07:44:16;;;;;;;4.93;4.10;;;;;;;23.80;100.00;96552.34;5046344;27;102144;-79
2023/08/19 07:46:45;;;;;;;4.07;3.63;;;;;;;23.93;100.00;96554.84;5008223;28;105345;-79
2023/08/19 07:49:13;;;;;;;5.63;3.60;;;;;;;23.85;100.00;96554.88;5042739;27;101911;-79
2023/08/19 07:51:40;;;;;;;4.10;3.80;;;;;;;24.34;100.00;96554.03;5009182;28;105627;-79
2023/08/19 07:54:07;;;;;;;4.70;3.80;;;;;;;24.53;100.00;96557.06;5008509;28;105276;-79
2023/08/19 07:56:36;;;;;;;5.67;3.70;;;;;;;24.42;100.00;96555.91;5009084;28;102153;-79
2023/08/19 07:59:03;;;;;;;5.63;3.80;;;;;;;24.70;100.00;96565.91;4992459;28;105440;-79
2023/08/19 08:01:30;;;;;;;5.10;3.50;;;;;;;25.05;100.00;96563.56;5008419;28;105957;-79
2023/08/19 08:03:57;;;;;;;4.70;3.60;;;;;;;25.21;100.00;96559.06;5008755;28;102460;-79
2023/08/19 08:06:23;;;;;;;4.10;3.73;;;;;;;25.31;100.00;96562.19;5011854;28;105082;-82
2023/08/19 08:08:50;;;;;;;4.67;3.50;;;;;;;25.61;100.00;96558.06;5008354;28;101963;-79
2023/08/19 08:11:17;;;;;;;4.07;3.50;;;;;;;25.72;100.00;96564.63;5008731;28;105679;-80
2023/08/19 08:13:46;;;;;;;4.37;3.60;;;;;;;25.69;100.00;96559.09;5008077;28;104448;-80
2023/08/19 08:16:12;;;;;;;4.73;3.70;;;;;;;25.64;100.00;96562.03;5008655;28;101987;-80
2023/08/19 08:18:39;;;;;;;4.43;3.67;;;;;;;25.79;100.00;96566.81;5008701;28;104842;-79
2023/08/19 08:21:06;;;;;;;4.13;3.30;;;;;;;26.00;100.00;96559.31;5007990;28;105647;-79
2023/08/19 08:23:33;;;;;;;3.47;3.10;;;;;;;26.21;100.00;96565.38;5008600;28;102177;-78
2023/08/19 08:26:00;;;;;;;4.37;3.97;;;;;;;26.07;100.00;96565.75;5008541;28;105403;-78
2023/08/19 08:28:27;;;;;;;3.83;3.43;;;;;;;25.63;100.00;96568.63;5011150;28;105350;-78
2023/08/19 08:30:56;;;;;;;3.30;3.00;;;;;;;26.16;100.00;96571.09;5008602;28;104157;-78
2023/08/19 08:33:23;;;;;;;3.80;3.30;;;;;;;26.09;100.00;96570.84;5008094;28;105475;-78
2023/08/19 08:35:50;;;;;;;3.73;3.33;;;;;;;26.43;100.00;96570.31;5008476;28;102055;-78
2023/08/19 08:38:17;;;;;;;4.93;3.60;;;;;;;26.44;100.00;96569.16;5008713;28;103873;-78
2023/08/19 08:40:44;;;;;;;5.83;3.60;;;;;;;26.70;100.00;96569.53;5007956;28;105342;-78
2023/08/19 08:43:11;;;;;;;3.80;3.10;;;;;;;27.07;100.00;96565.44;5008695;28;102023;-78
2023/08/19 08:45:39;;;;;;;3.80;3.30;;;;;;;27.29;100.00;96565.66;5007754;28;104800;-78
2023/08/19 08:48:10;;;;;;;5.83;3.57;;;;;;;27.29;100.00;96564.91;5007008;28;105510;-78
2023/08/19 08:50:38;;;;;;;3.47;3.17;;;;;;;27.45;100.00;96571.13;5012217;28;102008;-78
2023/08/19 08:53:05;;;;;;;4.07;3.23;;;;;;;27.53;100.00;96559.22;5010445;28;105612;-78
2023/08/19 08:55:33;;;;;;;5.93;3.30;;;;;;;27.10;100.00;96570.22;5011033;28;102028;-78
2023/08/19 08:58:00;;;;;;;4.87;3.30;;;;;;;27.42;100.00;96564.44;5011127;28;104920;-78
2023/08/19 09:00:27;;;;;;;3.80;3.30;;;;;;;27.47;100.00;96558.69;5010390;28;105703;-78
2023/08/19 09:02:55;;;;;;;4.03;3.73;;;;;;;27.73;100.00;96560.88;5010911;28;101989;-78
2023/08/19 09:05:26;;;;;;;4.40;3.10;;;;;;;27.89;100.00;96559.72;5010250;28;103297;-78
2023/08/19 09:07:54;;;;;;;3.73;3.23;;;;;;;27.78;100.00;96564.16;5010289;28;105631;-78
2023/08/19 09:10:24;;;;;;;4.67;3.23;;;;;;;28.04;100.00;96563.56;5014359;28;101853;-79
2023/08/19 09:12:57;;;;;;;6.23;3.40;;;;;;;27.83;100.00;96563.88;5011613;28;102824;-79
2023/08/19 09:15:27;;;;;;;4.60;3.00;;;;;;;28.18;100.00;96570.13;5010727;28;101956;-79
2023/08/19 09:17:56;;;;;;;3.77;3.40;;;;;;;28.42;100.00;96560.88;5010710;28;104358;-79
2023/08/19 09:20:25;;;;;;;4.47;3.13;;;;;;;28.50;100.00;96560.66;5009952;28;104497;-79
2023/08/19 09:22:52;;;;;;;4.40;2.93;;;;;;;28.32;100.00;96553.22;5010645;28;102016;-79
2023/08/19 09:25:19;;;;;;;4.13;3.20;;;;;;;28.50;100.00;96555.19;5012042;28;102709;-79
2023/08/19 09:27:46;;;;;;;4.00;3.20;;;;;;;28.68;100.00;96553.63;5009908;28;105791;-79
2023/08/19 09:30:16;;;;;;;4.10;3.30;;;;;;;28.83;100.00;96554.66;5010482;28;101960;-79
2023/08/19 09:32:45;;;;;;;3.83;3.00;;;;;;;29.07;100.00;96552.41;5013314;28;104939;-79
2023/08/19 09:35:14;;;;;;;3.53;3.00;;;;;;;29.20;100.00;96558.50;5010247;28;102279;-79
2023/08/19 09:37:43;;;;;;;3.25;2.95;;;;;;;29.29;100.00;96559.84;5010371;28;105197;-79
2023/08/19 09:40:17;;;;;;;3.75;3.05;;;;;;;29.31;100.00;96559.47;5009813;28;105502;-79
2023/08/19 09:42:48;;;;;;;3.35;3.00;;;;;;;29.35;100.00;96550.16;5010417;28;101859;-79
2023/08/19 09:45:18;;;;;;;4.35;2.88;;;;;;;29.32;100.00;96552.84;5010399;28;105524;-79
2023/08/19 09:47:49;;;;;;;3.58;3.10;;;;;;;29.89;100.00;96547.09;5008827;28;105070;-79
2023/08/19 09:50:16;;;;;;;3.15;2.80;;;;;;;30.11;100.00;96546.25;5010128;28;102025;-79
2023/08/19 09:52:53;;;;;;;3.22;2.92;;;;;;;30.17;100.00;96544.78;5010163;28;104541;-79
2023/08/19 09:55:23;;;;;;;4.35;2.67;;;;;;;30.32;100.00;96550.09;5012985;28;105172;-79
2023/08/19 09:57:49;;;;;;;4.80;2.70;;;;;;;30.70;100.00;96543.50;5009938;28;104116;-79
2023/08/19 10:00:16;;;;;;;3.53;2.85;;;;;;;30.64;100.00;96544.97;5009293;28;106020;-79
2023/08/19 10:02:43;;;;;;;3.13;2.90;;;;;;;30.33;100.00;96542.63;5010044;28;102067;-79
2023/08/19 10:05:10;;;;;;;3.97;2.90;;;;;;;30.46;100.00;96546.72;5009831;28;105117;-79
2023/08/19 10:07:40;;;;;;;3.05;2.85;;;;;;;30.55;100.00;96547.22;5009277;28;104627;-79
2023/08/19 10:10:12;;;;;;;3.97;2.97;;;;;;;31.01;100.00;96540.31;5009894;28;101989;-79
2023/08/19 10:12:41;;;;;;;2.90;2.70;;;;;;;30.58;100.00;96539.06;5009948;28;104344;-79
2023/08/19 10:15:12;;;;;;;3.92;3.05;;;;;;;31.20;100.00;96542.88;5009049;28;105693;-79
2023/08/19 10:17:42;;;;;;;3.42;3.13;;;;;;;31.24;100.00;96550.00;5012932;28;102230;-79
2023/08/19 10:20:13;;;;;;;3.60;2.72;;;;;;;31.66;100.00;96544.06;5009292;28;105293;-79
2023/08/19 10:22:43;;;;;;;3.33;2.67;;;;;;;31.86;99.13;96545.38;5010769;28;101935;-79
2023/08/19 10:25:14;;;;;;;2.83;2.63;;;;;;;31.75;98.92;96539.81;5009611;28;105368;-79
2023/08/19 10:27:43;;;;;;;2.90;2.70;;;;;;;32.22;98.03;96547.19;5008953;28;105871;-79
2023/08/19 10:30:31;;;;;;;5.50;3.50;;;;;;;31.33;94.21;96538.69;5009541;28;102109;-79
2023/08/19 10:33:04;;;;;;;5.25;2.90;;;;;;;31.74;100.00;96548.44;5009772;28;105280;-79
2023/08/19 10:35:59;;;;;;;3.00;2.47;;;;;;;32.04;86.81;96540.81;5008783;28;105493;-79
2023/08/19 10:38:26;;;;;;;2.90;2.40;;;;;;;32.30;89.64;96543.34;5009467;28;101981;-79
2023/08/19 10:41:04;;;;;;;3.78;2.50;;;;;;;32.48;85.06;96550.47;5012272;28;105738;-79
2023/08/19 10:43:52;;;;;;;3.47;2.53;;;;;;;32.61;84.88;96548.16;5009355;28;102521;-79
2023/08/19 10:46:19;;;;;;;3.05;2.47;;;;;;;32.65;70.93;96538.75;5008926;28;104088;-79
2023/08/19 10:48:47;;;;;;;3.05;2.47;;;;;;;32.55;86.50;96544.22;5008892;28;105228;-79
2023/08/19 10:51:14;;;;;;;4.78;2.67;;;;;;;32.63;93.71;96548.59;5009318;28;102073;-79
2023/08/19 10:53:49;;;;;;;3.47;2.33;;;;;;;32.96;82.77;96540.06;5009430;28;103759;-79
2023/08/19 10:56:20;;;;;;;2.70;2.50;;;;;;;33.20;82.24;96542.06;5008671;28;105503;-79
2023/08/19 10:58:49;;;;;;;4.15;2.67;;;;;;;33.29;76.61;96536.97;5008984;28;102240;-79
2023/08/19 11:01:16;;;;;;;3.75;2.60;;;;;;;33.04;67.43;96539.69;5008852;28;105188;-79
2023/08/19 11:03:44;;;;;;;3.40;2.80;;;;;;;33.20;90.07;96542.84;5011754;28;105133;-79
2023/08/19 11:06:11;;;;;;;4.20;2.75;;;;;;;32.65;98.77;96541.50;5009028;28;105699;-79
2023/08/19 11:08:44;;;;;;;3.97;2.60;;;;;;;32.41;99.76;96539.44;5008532;28;105034;-79
2023/08/19 11:11:17;;;;;;;4.03;2.70;;;;;;;32.87;86.16;96537.69;5008913;28;101962;-79
2023/08/19 11:13:45;;;;;;;2.50;2.25;;;;;;;33.35;75.15;96544.44;5008361;28;105550;-79
2023/08/19 11:16:12;;;;;;;5.32;2.67;;;;;;;33.55;83.66;96536.56;5008051;28;105382;-79
2023/08/19 11:18:42;;;;;;;3.40;2.80;;;;;;;33.91;66.21;96532.63;5008447;28;101841;-79
2023/08/19 11:21:09;;;;;;;3.10;2.17;;;;;;;34.09;68.46;96538.88;5008661;28;105771;-79
2023/08/19 11:23:36;;;;;;;2.40;2.20;;;;;;;33.78;72.71;96540.53;5011459;28;105107;-79